Flight Track Log - Related Links

Times and Time Zones

All times are in EDT time to prevent confusion due to time zone crossing. See the SWA3408 flight status page for this flight to view local times or setup timezone preferences in your user account.

Time Position Orientation Groundspeed Altitude Reporting Facility
EDT Latitude Longitude Course Direction KTS MPH feet Rate Location/Type
Mon 07:42:15 AM 41.8000 -87.7833 90° East 222 255 3,500  Level Chicago TRACON
Mon 07:43:10 AM 41.8000 -87.7000 90° East 257 296 4,000 233 Climbing Chicago TRACON
Mon 07:44:24 AM 41.7864 -87.5869 99° East 259 298 4,000  Level Chicago Center
Mon 07:45:25 AM 41.7836 -87.4897 92° East 262 302 4,000 439 Level Chicago Center
Mon 07:46:27 AM 41.7786 -87.3936 94° East 260 299 4,900 2,613 Climbing Chicago Center
Mon 07:47:00 AM 41.7500 -86.8829 90° East  Level FlightAware Approximate
Mon 07:47:29 AM 41.7731 -87.2894 94° East 277 319 9,400  Level Chicago Center
Mon 07:48:30 AM 41.7681 -87.1817 94° East 290 334 13,800 3,854 Climbing Chicago Center
Mon 07:49:32 AM 41.7614 -87.0544 94° East 337 388 17,300 3,659 Climbing Chicago Center
Mon 07:50:33 AM 41.7639 -86.8917 89° East 364 419 21,300 3,512 Climbing Chicago Center
Mon 07:51:35 AM 41.7653 -86.7483 89° East 382 440 24,500 2,758 Climbing Chicago Center
Mon 07:52:37 AM 41.7664 -86.6114 89° East 403 464 27,000 2,390 Climbing Chicago Center
Mon 07:53:38 AM 41.7675 -86.4542 89° East 420 483 29,400 2,488 Climbing Chicago Center
Mon 07:54:40 AM 41.7653 -86.2586 91° East 438 504 32,100 2,274 Climbing Chicago Center
Mon 07:55:42 AM 41.7550 -86.0919 95° East 448 516 34,100 1,854 Climbing Chicago Center
Mon 07:56:43 AM 41.7436 -85.9236 95° East 454 522 35,900 1,610 Climbing Chicago Center
Mon 07:57:45 AM 41.7331 -85.7511 95° East 462 532 37,400 1,452 Climbing Chicago Center
Mon 07:58:47 AM 41.7228 -85.5756 94° East 469 540 38,900 1,403 Climbing Chicago Center
Mon 07:59:49 AM 41.7078 -85.3819 96° East 467 537 40,300 976 Climbing Chicago Center
Mon 08:00:50 AM 41.6958 -85.2125 95° East 477 549 40,900 350 Climbing Chicago Center
Mon 08:01:49 AM 41.6842 -85.0211 95° East 490 564 41,000 50 Climbing Cleveland Center
Mon 08:02:49 AM 41.6722 -84.8425 95° East 490 564 41,000  Level Cleveland Center
Mon 08:03:49 AM 41.6622 -84.6639 94° East 483 556 41,000  Level Cleveland Center
Mon 08:04:49 AM 41.6558 -84.4883 93° East 483 556 41,000  Level Cleveland Center
Mon 08:05:49 AM 41.6469 -84.3097 94° East 483 556 41,000  Level Cleveland Center
Mon 08:06:49 AM 41.6358 -84.1397 95° East 478 550 41,000  Level Cleveland Center
Mon 08:07:49 AM 41.6267 -83.9614 94° East 478 550 41,000  Level Cleveland Center
Mon 08:08:49 AM 41.5706 -83.8083 116° Southeast 455 524 41,000  Level Cleveland Center
Mon 08:09:49 AM 41.5017 -83.6608 122° Southeast 455 524 41,000  Level Cleveland Center
Mon 08:10:49 AM 41.4325 -83.5161 122° Southeast 466 536 41,000  Level Cleveland Center
Mon 08:11:49 AM 41.3611 -83.3719 123° Southeast 466 536 41,000  Level Cleveland Center
Mon 08:12:49 AM 41.2917 -83.2253 122° Southeast 471 542 41,000  Level Cleveland Center
Mon 08:13:49 AM 41.2197 -83.0814 124° Southeast 471 542 41,000  Level Cleveland Center
Mon 08:14:49 AM 41.1497 -82.9353 122° Southeast 471 542 41,000  Level Cleveland Center
Mon 08:15:49 AM 41.0858 -82.8064 123° Southeast 466 536 41,000  Level Cleveland Center
Mon 08:16:49 AM 41.0156 -82.6636 123° Southeast 466 536 41,000  Level Cleveland Center
Mon 08:17:49 AM 40.9469 -82.5239 123° Southeast 471 542 41,000  Level Cleveland Center
Mon 08:19:48 AM 40.8036 -82.2400 124° Southeast 464 534 41,000  Level Cleveland Center
Mon 08:20:49 AM 40.7344 -82.1039 124° Southeast 477 549 41,000  Level Cleveland Center
Mon 08:21:49 AM 40.6633 -81.9628 124° Southeast 467 537 41,000  Level Cleveland Center
Mon 08:22:48 AM 40.5900 -81.8217 124° Southeast 474 545 41,000  Level Cleveland Center
Mon 08:23:48 AM 40.5183 -81.6811 124° Southeast 474 545 41,000  Level Cleveland Center
Mon 08:24:49 AM 40.4447 -81.5406 125° Southeast 474 545 41,000  Level Cleveland Center
Mon 08:25:48 AM 40.3667 -81.3869 124° Southeast 468 539 41,000  Level Cleveland Center
Mon 08:26:49 AM 40.3050 -81.2583 122° Southeast 468 539 41,000  Level Cleveland Center
Mon 08:27:48 AM 40.2328 -81.1217 125° Southeast 468 539 41,000  Level Cleveland Center
Mon 08:28:48 AM 40.1581 -80.9797 125° Southeast 468 539 41,000 -50 Level Cleveland Center
Mon 08:29:49 AM 40.0856 -80.8489 126° Southeast 463 533 40,900 -645 Descending Cleveland Center
Mon 08:30:49 AM 39.9858 -80.7239 136° Southeast 450 518 39,700 -1,109 Descending Cleveland Center
Mon 08:31:48 AM 39.9003 -80.6075 134° Southeast 450 518 38,700 -932 Descending Cleveland Center
Mon 08:33:30 AM 39.7978 -80.3828 121° Southeast 447 514 37,200 -889 Descending Washington Center
Mon 08:34:30 AM 39.7344 -80.2383 120° Southeast 459 528 36,300 -950 Descending Washington Center
Mon 08:35:30 AM 39.6689 -80.0992 121° Southeast 459 528 35,300 -1,050 Descending Washington Center
Mon 08:36:30 AM 39.6033 -79.9578 121° Southeast 459 528 34,200 -2,000 Descending Washington Center
Mon 08:37:30 AM 39.5522 -79.8119 114° Southeast 449 517 31,300 -2,700 Descending Washington Center
Mon 08:38:30 AM 39.5222 -79.6567 104° East 441 507 28,800 -2,150 Descending Washington Center
Mon 08:39:30 AM 39.4958 -79.5128 103° East 430 495 27,000 -900 Descending Washington Center
Mon 08:40:30 AM 39.4711 -79.3661 102° East 418 481 27,000 -500 Level Washington Center
Mon 08:41:30 AM 39.4408 -79.2006 103° East 418 481 26,000 -1,500 Descending Washington Center
Mon 08:42:30 AM 39.4136 -79.0597 104° East 418 481 24,000 -2,132 Descending Washington Center
Mon 08:43:31 AM 39.3883 -78.9242 104° East 406 467 21,700 -2,300 Descending Washington Center
Mon 08:44:30 AM 39.3650 -78.7914 103° East 392 451 19,400 -1,916 Descending Washington Center
Mon 08:45:30 AM 39.3411 -78.6642 104° East 371 427 17,900 -1,835 Descending Washington Center
Mon 08:46:31 AM 39.3192 -78.5400 103° East 359 413 15,700 -2,250 Descending Washington Center
Mon 08:47:30 AM 39.2972 -78.4156 103° East 359 413 13,400 -2,218 Descending Washington Center
Mon 08:48:30 AM 39.2558 -78.3069 116° Southeast 352 405 11,300 -1,300 Descending Washington Center
Mon 08:49:30 AM 39.2078 -78.2167 124° Southeast 325 374 10,800 -800 Descending Washington Center
Mon 08:50:30 AM 39.1658 -78.1375 124° Southeast 296 341 9,700 -1,300 Descending Washington Center
Mon 08:51:30 AM 39.1236 -78.0583 124° Southeast 278 320 8,200 -1,350 Descending Washington Center
Mon 08:52:30 AM 39.0814 -77.9822 126° Southeast 266 306 7,000 -600 Descending Washington Center
Mon 08:53:30 AM 39.0411 -77.9061 124° Southeast 260 299 7,000  Level Washington Center
Mon 08:54:30 AM 39.0050 -77.8356 123° Southeast 254 292 7,000  Level Washington Center
Mon 08:55:30 AM 38.9689 -77.7650 123° Southeast 254 292 7,000 -450 Level Washington Center
Mon 08:56:30 AM 38.9561 -77.6658 99° East 249 287 6,100 -813 Descending Washington Center
Mon 08:57:06 AM 38.9333 -77.6167 121° Southeast 253 291 5,700 -938 Descending Potomac TRACON
Mon 08:58:06 AM 38.8667 -77.5833 159° South 244 281 4,600 -1,148 Descending Potomac TRACON
Mon 08:59:01 AM 38.8167 -77.5667 165° South 238 274 3,500 -1,252 Descending Potomac TRACON
Mon 09:00:01 AM 38.8000 -77.5000 108° East 228 262 2,200 -750 Descending Potomac TRACON
Mon 09:01:01 AM 38.8333 -77.4500 49° Northeast 191 220 2,000 -421 Descending Potomac TRACON
Mon 09:01:55 AM 38.8667 -77.4333 21° North 138 159 1,400 -632 Descending Potomac TRACON
Mon 09:02:55 AM 38.9000 -77.4333 360° North 125 144 800 -600 Descending Potomac TRACON
Mon 09:04:00 AM 38.9333 -77.4500 349° North  Level FlightAware Approximate
Mon 09:11:00 AM 38.9474 -77.4599 349° North  Level Estimated
Mon 09:12:00 AM 38.9474 -77.4599 349° North  Level Estimated
Mon 09:13:00 AM 38.9474 -77.4599 349° North  Level Estimated

Login

Don't have an account? Register now (free) for customized features, flight alerts, and more!